createdAt,value
2019-03-15T00:03:06.427Z,1.30
2019-03-15T00:08:10.802Z,1.20
2019-03-15T00:13:15.149Z,1.20
2019-03-15T00:18:19.994Z,1.50
2019-03-15T00:23:24.341Z,1.23
2019-03-15T00:28:28.716Z,1.10
2019-03-15T00:33:33.128Z,1.30
2019-03-15T00:38:37.493Z,1.10
2019-03-15T00:43:41.849Z,1.20
2019-03-15T00:48:46.246Z,1.00
2019-03-15T00:53:53.953Z,1.10
2019-03-15T00:58:56.765Z,1.10
2019-03-15T01:04:01.161Z,1.30
2019-03-15T01:09:06.477Z,1.20
2019-03-15T01:14:10.854Z,0.97
2019-03-15T01:19:15.199Z,1.50
2019-03-15T01:24:19.598Z,1.40
2019-03-15T01:29:23.936Z,1.83
2019-03-15T01:34:28.268Z,1.40
2019-03-15T01:39:32.629Z,1.10
2019-03-15T01:44:37.035Z,1.33
2019-03-15T01:49:44.428Z,1.30
2019-03-15T01:54:47.481Z,1.40
2019-03-15T01:59:51.870Z,1.20
2019-03-15T02:04:56.242Z,1.40
2019-03-15T02:10:00.642Z,1.10
2019-03-15T02:15:08.253Z,1.47
2019-03-15T02:20:12.637Z,1.50
2019-03-15T02:25:16.978Z,1.60
2019-03-15T02:30:21.338Z,1.70
2019-03-15T02:35:25.842Z,1.20
2019-03-15T02:40:30.252Z,1.10
2019-03-15T02:45:34.654Z,1.43
2019-03-15T02:50:39.115Z,1.20
2019-03-15T02:55:43.462Z,1.63
2019-03-15T03:00:47.908Z,1.73
2019-03-15T03:05:52.268Z,1.37
2019-03-15T03:10:56.648Z,1.40
2019-03-15T03:16:00.998Z,1.90
2019-03-15T03:21:05.342Z,1.40
2019-03-15T03:26:09.714Z,1.77
2019-03-15T03:31:15.495Z,1.30
2019-03-15T03:36:20.265Z,1.20
2019-03-15T03:41:24.628Z,1.30
2019-03-15T03:46:29.063Z,1.23
2019-03-15T03:51:33.424Z,1.03
2019-03-15T03:56:37.760Z,1.50
2019-03-15T04:01:42.155Z,1.33
2019-03-15T04:06:46.613Z,1.50
2019-03-15T04:11:55.730Z,1.30
2019-03-15T04:16:57.199Z,1.80
2019-03-15T04:22:01.660Z,1.30
2019-03-15T04:27:06.085Z,1.50
2019-03-15T04:32:10.431Z,1.50
2019-03-15T04:37:14.787Z,1.70
2019-03-15T04:42:19.120Z,1.57
2019-03-15T04:47:23.475Z,1.70
2019-03-15T04:52:27.848Z,1.90
2019-03-15T04:57:32.330Z,1.43
2019-03-15T05:02:37.390Z,1.77
2019-03-15T05:07:41.823Z,1.50
2019-03-15T05:12:46.265Z,1.60
2019-03-15T05:17:50.663Z,1.73
2019-03-15T05:22:54.994Z,1.90
2019-03-15T05:27:59.371Z,1.97
2019-03-15T05:33:03.747Z,1.53
2019-03-15T05:38:08.116Z,1.80
2019-03-15T05:43:12.481Z,1.80
2019-03-15T05:48:16.850Z,1.80
2019-03-15T05:53:21.206Z,1.90
2019-03-15T05:58:25.547Z,1.70
2019-03-15T06:03:29.936Z,1.77
2019-03-15T06:08:34.337Z,1.70
2019-03-15T06:13:38.858Z,1.70
2019-03-15T06:18:43.258Z,1.63
2019-03-15T06:23:47.592Z,2.37
2019-03-15T06:28:52.043Z,2.13
2019-03-15T06:33:56.527Z,1.80
2019-03-15T06:39:00.903Z,1.50
2019-03-15T06:44:05.637Z,1.77
2019-03-15T06:49:10.455Z,1.80
2019-03-15T06:54:14.878Z,1.70
2019-03-15T06:59:19.238Z,1.70
2019-03-15T07:04:23.592Z,1.80
2019-03-15T07:09:30.745Z,1.90
2019-03-15T07:14:33.977Z,2.43
2019-03-15T07:19:39.296Z,1.90
2019-03-15T07:24:44.100Z,2.00
2019-03-15T07:29:48.668Z,2.30
2019-03-15T07:34:53.032Z,1.93
2019-03-15T07:39:57.347Z,2.30
2019-03-15T07:45:01.752Z,1.97
2019-03-15T07:50:09.261Z,2.17
2019-03-15T07:55:13.611Z,2.23
2019-03-15T08:00:18.600Z,2.30
2019-03-15T08:05:22.978Z,2.20
2019-03-15T08:10:27.332Z,2.30
2019-03-15T08:15:31.698Z,2.20
2019-03-15T08:20:36.073Z,2.40
2019-03-15T08:25:40.414Z,2.30
2019-03-15T08:30:44.827Z,2.20
2019-03-15T08:35:49.198Z,2.60
2019-03-15T08:40:53.687Z,2.37
2019-03-15T08:45:58.003Z,2.20
2019-03-15T08:51:02.436Z,2.15
2019-03-15T08:56:07.829Z,2.30
2019-03-15T09:01:12.275Z,2.20
2019-03-15T09:06:16.634Z,2.40
2019-03-15T09:11:21.085Z,2.73
2019-03-15T09:16:25.498Z,2.00
2019-03-15T09:21:29.909Z,2.27
2019-03-15T09:26:34.341Z,2.27
2019-03-15T09:31:47.691Z,2.30
2019-03-15T09:36:50.332Z,2.20
2019-03-15T09:41:51.060Z,2.50
2019-03-15T09:46:55.423Z,2.40
2019-03-15T09:51:59.812Z,2.40
2019-03-15T09:57:04.166Z,2.47
2019-03-15T10:02:08.658Z,2.40
2019-03-15T10:07:13.031Z,2.63
2019-03-15T10:12:17.407Z,2.63
2019-03-15T10:17:23.094Z,2.20
2019-03-15T10:22:27.619Z,2.43
2019-03-15T10:27:31.991Z,2.43
2019-03-15T10:32:36.370Z,2.20
2019-03-15T10:37:40.737Z,2.70
2019-03-15T10:42:46.072Z,2.50
2019-03-15T10:47:50.428Z,2.10
2019-03-15T10:52:54.861Z,2.33
2019-03-15T10:57:59.180Z,2.30
2019-03-15T11:03:03.553Z,2.10
2019-03-15T11:08:07.925Z,2.10
2019-03-15T11:13:12.282Z,2.00
2019-03-15T11:18:16.634Z,2.00
2019-03-15T11:23:21.171Z,2.30
2019-03-15T11:28:25.515Z,2.87
2019-03-15T11:33:29.899Z,2.10
2019-03-15T11:38:34.248Z,2.40
2019-03-15T11:43:38.632Z,2.20
2019-03-15T11:48:42.999Z,2.50
2019-03-15T11:53:47.389Z,1.63
2019-03-15T11:58:51.744Z,2.00
2019-03-15T12:03:56.115Z,1.80
2019-03-15T12:09:00.512Z,1.90
2019-03-15T12:14:04.863Z,2.07
2019-03-15T12:19:09.258Z,1.70
2019-03-15T12:24:13.616Z,1.67
2019-03-15T12:29:17.999Z,1.60
2019-03-15T12:34:22.391Z,1.23
2019-03-15T12:39:26.735Z,1.43
2019-03-15T12:44:31.089Z,1.10
2019-03-15T12:49:35.436Z,1.13
2019-03-15T12:54:39.804Z,1.07
2019-03-15T12:59:44.146Z,1.00
2019-03-15T13:04:52.053Z,1.20
2019-03-15T13:09:55.642Z,1.10
2019-03-15T13:14:59.954Z,1.00
2019-03-15T13:20:05.726Z,0.90
2019-03-15T13:25:11.233Z,1.00
2019-03-15T13:30:16.540Z,0.83
2019-03-15T13:35:20.955Z,1.00
2019-03-15T13:40:25.414Z,1.10
2019-03-15T13:45:29.939Z,1.10
2019-03-15T13:50:34.348Z,0.83
2019-03-15T13:55:38.701Z,0.90
2019-03-15T14:00:44.177Z,0.93
2019-03-15T14:05:48.512Z,0.70
2019-03-15T14:10:53.925Z,1.40
2019-03-15T14:16:01.434Z,0.80
2019-03-15T14:21:04.338Z,1.10
2019-03-15T14:26:09.786Z,1.10
2019-03-15T14:31:14.197Z,1.00
2019-03-15T14:36:18.553Z,1.07
2019-03-15T14:41:23.743Z,1.03
2019-03-15T14:46:28.274Z,0.97
2019-03-15T14:51:32.629Z,0.80
2019-03-15T14:56:36.978Z,0.60
2019-03-15T15:01:41.365Z,1.23
2019-03-15T15:06:45.736Z,1.10
2019-03-15T15:11:50.047Z,1.00
2019-03-15T15:16:54.391Z,0.90
2019-03-15T15:21:59.853Z,0.80
2019-03-15T15:27:04.330Z,1.10
2019-03-15T15:32:08.814Z,1.00
2019-03-15T15:37:13.226Z,0.87
2019-03-15T15:42:17.571Z,1.07
2019-03-15T15:47:21.952Z,0.80
2019-03-15T15:52:26.377Z,0.70
2019-03-15T15:57:30.782Z,0.77
2019-03-15T16:02:35.423Z,0.87
2019-03-15T16:07:39.863Z,0.80
2019-03-15T16:12:44.336Z,0.97
2019-03-15T16:17:48.690Z,0.90
2019-03-15T16:22:54.103Z,0.70
2019-03-15T16:27:59.885Z,0.90
2019-03-15T16:33:06.163Z,0.80
2019-03-15T16:38:12.141Z,0.90
2019-03-15T16:43:18.877Z,1.00
2019-03-15T16:48:23.349Z,0.97
2019-03-15T16:53:27.782Z,0.80
2019-03-15T16:58:44.454Z,0.90
2019-03-15T17:03:38.229Z,0.70
2019-03-15T17:08:42.740Z,0.80
2019-03-15T17:13:47.085Z,0.80
2019-03-15T17:18:51.455Z,0.80
2019-03-15T17:23:55.797Z,0.90
2019-03-15T17:29:00.221Z,0.70
2019-03-15T17:34:04.603Z,0.80
2019-03-15T17:39:09.745Z,0.93
2019-03-15T17:44:23.352Z,0.70
2019-03-15T17:49:27.730Z,0.80
2019-03-15T17:54:32.084Z,0.80
2019-03-15T17:59:36.465Z,0.80
2019-03-15T18:04:40.931Z,0.80
2019-03-15T18:09:45.275Z,0.80
2019-03-15T18:14:50.204Z,0.90
2019-03-15T18:19:54.535Z,0.90
2019-03-15T18:24:58.948Z,0.90
2019-03-15T18:30:04.157Z,0.90
2019-03-15T18:35:10.084Z,1.17
2019-03-15T18:40:16.596Z,1.10
2019-03-15T18:45:20.952Z,1.13
2019-03-15T18:50:26.339Z,1.37
2019-03-15T18:55:30.706Z,1.20
2019-03-15T19:00:35.154Z,1.20
2019-03-15T19:05:39.541Z,1.50
2019-03-15T19:10:43.904Z,1.40
2019-03-15T19:15:48.369Z,1.50
2019-03-15T19:20:53.132Z,1.50
2019-03-15T19:25:57.505Z,1.60
2019-03-15T19:31:01.953Z,1.50
2019-03-15T19:36:06.342Z,1.40
2019-03-15T19:41:10.731Z,1.50
2019-03-15T19:46:15.194Z,1.57
2019-03-15T19:51:19.741Z,1.43
2019-03-15T19:56:24.180Z,1.40
2019-03-15T20:01:29.150Z,1.40
2019-03-15T20:06:33.590Z,1.30
2019-03-15T20:11:38.025Z,1.30
2019-03-15T20:16:42.420Z,1.43
2019-03-15T20:21:46.839Z,1.30
2019-03-15T20:26:51.659Z,1.43
2019-03-15T20:31:56.192Z,1.30
2019-03-15T20:37:00.628Z,1.10
2019-03-15T20:42:05.130Z,1.13
2019-03-15T20:47:09.550Z,1.30
2019-03-15T20:52:13.911Z,1.10
2019-03-15T20:57:19.963Z,1.33
2019-03-15T21:02:24.292Z,1.50
2019-03-15T21:07:28.698Z,1.67
2019-03-15T21:12:33.273Z,1.57
2019-03-15T21:17:37.648Z,1.20
2019-03-15T21:22:42.120Z,1.03
2019-03-15T21:27:53.475Z,1.17
2019-03-15T21:32:52.652Z,1.32
2019-03-15T21:37:57.212Z,1.30
2019-03-15T21:43:01.633Z,1.37
2019-03-15T21:48:05.956Z,1.30
2019-03-15T21:53:10.331Z,1.00
2019-03-15T21:58:14.702Z,1.30
2019-03-15T22:03:19.087Z,1.27
2019-03-15T22:08:24.535Z,1.17
2019-03-15T22:13:29.964Z,1.03
2019-03-15T22:18:34.310Z,1.30
2019-03-15T22:23:40.009Z,1.30
2019-03-15T22:28:44.376Z,1.70
2019-03-15T22:33:48.989Z,1.20
2019-03-15T22:38:53.352Z,1.30
2019-03-15T22:43:57.722Z,1.10
2019-03-15T22:49:03.023Z,1.20
2019-03-15T22:54:07.382Z,1.03
2019-03-15T22:59:11.767Z,1.10
2019-03-15T23:04:16.120Z,1.13
2019-03-15T23:09:20.557Z,1.03
2019-03-15T23:14:24.898Z,1.30
2019-03-15T23:19:30.261Z,1.40
2019-03-15T23:24:35.629Z,1.15
2019-03-15T23:29:39.983Z,1.13
2019-03-15T23:34:44.390Z,1.07
2019-03-15T23:39:48.829Z,1.00
2019-03-15T23:44:53.188Z,1.05
2019-03-15T23:49:57.587Z,1.20
2019-03-15T23:55:02.057Z,1.37
